createdAt,value
2022-08-22T00:01:33.133Z,7.60
2022-08-22T00:02:47.466Z,5.20
2022-08-22T00:02:59.073Z,5.80
2022-08-22T00:02:59.391Z,7.90
2022-08-22T00:03:15.359Z,6.20
2022-08-22T00:04:14.629Z,7.60
2022-08-22T00:06:56.665Z,7.90
2022-08-22T00:09:41.542Z,8.20
2022-08-22T00:12:22.876Z,7.60
2022-08-22T00:15:05.069Z,8.30
2022-08-22T00:17:48.415Z,7.90
2022-08-22T00:20:26.109Z,7.50
2022-08-22T00:23:11.710Z,8.20
2022-08-22T00:25:51.572Z,8.00
2022-08-22T00:28:26.767Z,8.20
2022-08-22T00:31:03.589Z,8.50
2022-08-22T00:36:20.546Z,7.70
2022-08-22T00:38:59.959Z,8.30
2022-08-22T00:41:50.955Z,8.10
2022-08-22T00:44:56.040Z,8.70
2022-08-22T00:47:52.947Z,9.30
2022-08-22T00:50:55.722Z,8.60
2022-08-22T00:53:44.503Z,8.40
2022-08-22T00:56:37.732Z,9.00
2022-08-22T00:59:35.863Z,8.60
2022-08-22T01:02:25.479Z,8.30
2022-08-22T01:05:12.136Z,8.30
2022-08-22T01:08:13.531Z,8.80
2022-08-22T01:10:59.412Z,9.10
2022-08-22T01:14:06.446Z,8.70
2022-08-22T01:17:00.813Z,9.30
2022-08-22T01:20:10.668Z,8.20
2022-08-22T01:23:19.393Z,8.30
2022-08-22T01:26:38.886Z,9.10
2022-08-22T01:29:39.321Z,10.30
2022-08-22T01:32:46.083Z,11.10
2022-08-22T01:35:38.249Z,14.50
2022-08-22T01:38:27.158Z,16.60
2022-08-22T01:41:38.786Z,17.60
2022-08-22T01:44:39.366Z,16.40
2022-08-22T01:47:15.912Z,15.30
2022-08-22T01:49:55.392Z,14.50
2022-08-22T01:52:45.813Z,14.60
2022-08-22T01:55:33.644Z,12.90
2022-08-22T01:58:21.280Z,11.80
2022-08-22T02:01:08.438Z,11.30
2022-08-22T02:03:53.578Z,10.10
2022-08-22T02:06:34.039Z,10.70
2022-08-22T02:09:12.078Z,10.80
2022-08-22T02:11:49.753Z,9.80
2022-08-22T02:14:37.733Z,9.10
2022-08-22T02:17:21.387Z,10.00
2022-08-22T02:20:00.153Z,9.60
2022-08-22T02:22:44.645Z,9.10
2022-08-22T02:25:22.762Z,9.90
2022-08-22T02:28:00.070Z,9.70
2022-08-22T02:30:48.991Z,9.60
2022-08-22T02:33:34.100Z,9.50
2022-08-22T02:36:16.737Z,9.90
2022-08-22T02:39:00.489Z,9.30
2022-08-22T02:41:44.971Z,9.70
2022-08-22T02:44:22.400Z,9.80
2022-08-22T02:47:02.764Z,10.60
2022-08-22T02:49:47.170Z,9.70
2022-08-22T02:52:24.465Z,8.90
2022-08-22T02:55:03.656Z,8.90
2022-08-22T02:57:41.778Z,9.30
2022-08-22T03:00:33.050Z,9.60
2022-08-22T03:03:17.046Z,9.20
2022-08-22T03:06:02.114Z,9.80
2022-08-22T03:08:38.009Z,9.80
2022-08-22T03:11:22.932Z,9.50
2022-08-22T03:14:05.008Z,9.10
2022-08-22T03:16:45.958Z,9.70
2022-08-22T03:19:26.317Z,9.40
2022-08-22T03:22:02.393Z,9.70
2022-08-22T03:24:40.427Z,9.50
2022-08-22T03:27:32.278Z,9.00
2022-08-22T03:30:11.901Z,9.80
2022-08-22T03:32:59.737Z,9.30
2022-08-22T03:35:56.053Z,9.30
2022-08-22T03:38:44.682Z,9.60
2022-08-22T03:41:40.307Z,9.10
2022-08-22T03:44:49.099Z,9.20
2022-08-22T03:47:49.708Z,9.10
2022-08-22T03:50:58.718Z,9.60
2022-08-22T03:53:51.695Z,9.40
2022-08-22T03:57:00.265Z,9.30
2022-08-22T04:00:00.615Z,9.40
2022-08-22T04:03:00.494Z,8.70
2022-08-22T04:05:55.676Z,9.70
2022-08-22T04:08:43.981Z,8.80
2022-08-22T04:11:41.517Z,9.30
2022-08-22T04:14:34.269Z,10.00
2022-08-22T04:17:45.504Z,10.10
2022-08-22T04:20:52.614Z,9.80
2022-08-22T04:23:50.394Z,8.80
2022-08-22T04:26:30.607Z,9.30
2022-08-22T04:29:09.208Z,9.00
2022-08-22T04:31:48.752Z,8.80
2022-08-22T04:34:28.194Z,9.30
2022-08-22T04:37:04.975Z,9.30
2022-08-22T04:39:46.825Z,9.00
2022-08-22T04:42:33.056Z,8.60
2022-08-22T04:45:11.178Z,8.60
2022-08-22T04:50:34.005Z,8.50
2022-08-22T04:53:23.563Z,8.00
2022-08-22T04:56:07.664Z,8.00
2022-08-22T04:58:56.770Z,7.90
2022-08-22T05:01:46.870Z,7.90
2022-08-22T05:04:24.173Z,7.70
2022-08-22T05:06:59.976Z,7.10
2022-08-22T05:09:37.564Z,6.90
2022-08-22T05:12:14.963Z,7.70
2022-08-22T05:14:50.178Z,7.40
2022-08-22T05:17:30.311Z,7.10
2022-08-22T05:20:08.048Z,6.50
2022-08-22T05:22:46.357Z,7.00
2022-08-22T05:25:25.154Z,8.80
2022-08-22T05:28:08.516Z,8.60
2022-08-22T05:30:41.589Z,6.30
2022-08-22T05:33:21.116Z,5.90
2022-08-22T05:35:58.570Z,6.40
2022-08-22T05:38:35.599Z,6.00
2022-08-22T05:41:11.993Z,6.30
2022-08-22T05:43:46.480Z,6.50
2022-08-22T05:46:26.864Z,6.80
2022-08-22T05:49:02.632Z,6.10
2022-08-22T05:51:47.108Z,6.30
2022-08-22T05:54:34.365Z,5.60
2022-08-22T05:57:18.079Z,6.70
2022-08-22T05:59:55.583Z,6.30
2022-08-22T06:02:40.396Z,6.00
2022-08-22T06:05:13.748Z,5.80
2022-08-22T06:07:50.167Z,6.90
2022-08-22T06:10:27.790Z,6.80
2022-08-22T06:13:11.695Z,5.50
2022-08-22T06:15:49.794Z,5.20
2022-08-22T06:18:26.179Z,7.80
2022-08-22T06:21:03.938Z,5.50
2022-08-22T06:23:41.741Z,5.50
2022-08-22T06:26:20.909Z,5.40
2022-08-22T06:28:59.049Z,5.70
2022-08-22T06:31:39.210Z,5.30
2022-08-22T06:34:15.367Z,5.30
2022-08-22T06:36:50.708Z,5.00
2022-08-22T06:42:01.189Z,5.10
2022-08-22T06:44:37.436Z,5.00
2022-08-22T06:47:16.622Z,4.90
2022-08-22T06:49:49.561Z,4.90
2022-08-22T06:52:24.563Z,5.40
2022-08-22T06:55:03.756Z,5.30
2022-08-22T06:57:38.768Z,4.80
2022-08-22T07:00:16.465Z,4.60
2022-08-22T07:02:52.785Z,4.90
2022-08-22T07:05:28.290Z,5.00
2022-08-22T07:08:06.305Z,4.60
2022-08-22T07:10:41.725Z,4.90
2022-08-22T07:13:17.986Z,4.60
2022-08-22T07:15:56.324Z,4.50
2022-08-22T07:18:31.958Z,4.60
2022-08-22T07:21:08.459Z,4.40
2022-08-22T07:23:48.212Z,4.40
2022-08-22T07:26:34.955Z,4.50
2022-08-22T07:29:18.279Z,5.20
2022-08-22T07:31:56.534Z,4.30
2022-08-22T07:34:44.784Z,4.80
2022-08-22T07:37:28.855Z,5.30
2022-08-22T07:40:09.556Z,4.90
2022-08-22T07:42:50.233Z,4.60
2022-08-22T07:45:34.217Z,4.60
2022-08-22T07:48:26.245Z,5.30
2022-08-22T07:51:06.218Z,4.60
2022-08-22T07:53:43.417Z,5.00
2022-08-22T07:56:21.999Z,4.60
2022-08-22T07:59:12.941Z,4.80
2022-08-22T08:01:50.370Z,4.90
2022-08-22T08:04:26.610Z,5.00
2022-08-22T08:07:01.770Z,5.10
2022-08-22T08:09:38.667Z,5.00
2022-08-22T08:12:14.129Z,5.20
2022-08-22T08:14:51.120Z,5.00
2022-08-22T08:17:31.879Z,5.40
2022-08-22T08:20:09.881Z,5.30
2022-08-22T08:22:45.061Z,5.50
2022-08-22T08:25:21.092Z,5.00
2022-08-22T08:28:19.888Z,5.50
2022-08-22T08:31:00.847Z,5.00
2022-08-22T08:33:36.279Z,5.20
2022-08-22T08:36:16.631Z,5.30
2022-08-22T08:38:54.642Z,5.10
2022-08-22T08:41:43.927Z,4.30
2022-08-22T08:44:29.392Z,4.60
2022-08-22T08:47:22.928Z,4.20
2022-08-22T08:50:18.744Z,4.50
2022-08-22T08:53:26.640Z,4.60
2022-08-22T08:56:05.256Z,4.80
2022-08-22T08:58:48.813Z,5.30
2022-08-22T09:02:00.307Z,4.20
2022-08-22T09:05:03.207Z,4.50
2022-08-22T09:07:57.200Z,4.90
2022-08-22T09:10:57.298Z,4.30
2022-08-22T09:13:48.981Z,4.10
2022-08-22T09:16:51.794Z,4.70
2022-08-22T09:19:47.735Z,4.50
2022-08-22T09:22:59.110Z,4.30
2022-08-22T09:25:38.699Z,4.40
2022-08-22T09:28:19.933Z,4.60
2022-08-22T09:31:16.615Z,4.50
2022-08-22T09:34:00.190Z,4.70
2022-08-22T09:36:50.135Z,4.80
2022-08-22T09:39:34.411Z,4.40
2022-08-22T09:42:12.760Z,5.00
2022-08-22T09:44:59.410Z,4.80
2022-08-22T09:47:39.307Z,4.40
2022-08-22T09:50:19.278Z,5.00
2022-08-22T09:53:05.383Z,5.80
2022-08-22T09:55:53.740Z,4.90
2022-08-22T09:58:41.565Z,4.80
2022-08-22T10:01:25.952Z,4.60
2022-08-22T10:04:40.301Z,5.20
2022-08-22T10:07:38.392Z,4.50
2022-08-22T10:10:24.599Z,5.30
2022-08-22T10:13:10.521Z,4.60
2022-08-22T10:15:50.211Z,4.80
2022-08-22T10:18:34.623Z,4.60
2022-08-22T10:21:13.495Z,4.50
2022-08-22T10:23:54.134Z,4.50
2022-08-22T10:26:38.641Z,5.40
2022-08-22T10:29:41.221Z,5.10
2022-08-22T10:32:27.469Z,4.50
2022-08-22T10:35:06.335Z,5.30
2022-08-22T10:37:50.567Z,5.00
2022-08-22T10:40:28.921Z,5.20
2022-08-22T10:43:09.281Z,5.10
2022-08-22T10:45:46.373Z,4.50
2022-08-22T10:48:42.530Z,4.60
2022-08-22T10:51:24.784Z,4.50
2022-08-22T10:54:20.151Z,4.80
2022-08-22T10:57:03.729Z,4.60
2022-08-22T10:59:50.723Z,4.80
2022-08-22T11:02:38.731Z,4.70
2022-08-22T11:05:36.288Z,4.40
2022-08-22T11:08:21.899Z,5.10
2022-08-22T11:11:06.979Z,4.70
2022-08-22T11:13:47.070Z,4.80
2022-08-22T11:16:36.603Z,4.80
2022-08-22T11:19:27.562Z,4.90
2022-08-22T11:22:16.198Z,4.60
2022-08-22T11:25:12.909Z,5.40
2022-08-22T11:28:00.261Z,5.60
2022-08-22T11:30:43.923Z,4.90
2022-08-22T11:33:39.068Z,5.20
2022-08-22T11:36:37.085Z,4.50
2022-08-22T11:39:24.468Z,5.40
2022-08-22T11:42:06.566Z,4.80
2022-08-22T11:44:50.222Z,5.50
2022-08-22T11:47:26.813Z,5.10
2022-08-22T11:50:13.388Z,5.20
2022-08-22T11:53:17.231Z,4.90
2022-08-22T11:56:00.052Z,4.70
2022-08-22T11:58:50.211Z,5.20
2022-08-22T12:01:34.350Z,4.80
2022-08-22T12:04:18.724Z,5.10
2022-08-22T12:06:59.427Z,5.10
2022-08-22T12:09:44.506Z,5.80
2022-08-22T12:12:42.201Z,4.80
2022-08-22T12:15:24.421Z,4.90
2022-08-22T12:18:25.406Z,5.00
2022-08-22T12:21:24.758Z,5.30
2022-08-22T12:24:20.759Z,4.60
2022-08-22T12:27:09.161Z,5.00
2022-08-22T12:29:46.135Z,5.20
2022-08-22T12:32:50.312Z,5.00
2022-08-22T12:35:40.319Z,5.50
2022-08-22T12:38:30.701Z,5.30
2022-08-22T12:41:38.552Z,5.50
2022-08-22T12:44:33.795Z,5.00
2022-08-22T12:47:21.915Z,5.10
2022-08-22T12:50:16.578Z,4.60
2022-08-22T12:53:18.238Z,5.40
2022-08-22T12:56:04.054Z,5.10
2022-08-22T12:58:52.344Z,5.70
2022-08-22T13:01:34.120Z,6.10
2022-08-22T13:04:13.319Z,7.90
2022-08-22T13:07:22.875Z,10.60
2022-08-22T13:10:00.898Z,10.00
2022-08-22T13:12:44.037Z,7.50
2022-08-22T13:15:29.378Z,6.00
2022-08-22T13:18:19.183Z,5.30
2022-08-22T13:20:59.503Z,5.00
2022-08-22T13:23:39.885Z,5.50
2022-08-22T13:26:31.628Z,5.00
2022-08-22T13:29:25.824Z,5.50
2022-08-22T13:32:01.926Z,5.30
2022-08-22T13:34:45.811Z,5.30
2022-08-22T13:37:24.606Z,5.10
2022-08-22T13:40:03.218Z,5.50
2022-08-22T13:42:47.804Z,4.90
2022-08-22T13:45:26.605Z,5.00
2022-08-22T13:48:03.695Z,5.20
2022-08-22T13:50:53.506Z,4.90
2022-08-22T13:53:35.655Z,8.00
2022-08-22T13:56:15.992Z,5.50
2022-08-22T13:58:52.536Z,4.50
2022-08-22T14:01:39.106Z,5.50
2022-08-22T14:04:35.590Z,5.30
2022-08-22T14:07:31.703Z,5.20
2022-08-22T14:10:14.871Z,5.40
2022-08-22T14:13:22.720Z,4.80
2022-08-22T14:16:02.621Z,5.40
2022-08-22T14:18:45.506Z,5.10
2022-08-22T14:21:40.618Z,5.10
2022-08-22T14:24:28.456Z,5.60
2022-08-22T14:27:06.469Z,5.90
2022-08-22T14:29:50.220Z,5.30
2022-08-22T14:32:48.198Z,5.50
2022-08-22T14:35:34.681Z,5.90
2022-08-22T14:38:27.283Z,5.60
2022-08-22T14:41:06.309Z,5.20
2022-08-22T14:43:51.241Z,5.40
2022-08-22T14:46:28.167Z,5.60
2022-08-22T14:49:28.882Z,5.80
2022-08-22T14:52:06.812Z,5.50
2022-08-22T14:54:42.587Z,5.60
2022-08-22T14:57:20.195Z,5.70
2022-08-22T14:59:55.080Z,5.20
2022-08-22T15:02:32.739Z,5.80
2022-08-22T15:05:19.224Z,6.10
2022-08-22T15:08:00.393Z,5.00
2022-08-22T15:10:36.565Z,5.80
2022-08-22T15:13:13.230Z,5.90
2022-08-22T15:15:54.195Z,5.30
2022-08-22T15:18:38.981Z,6.00
2022-08-22T15:21:24.103Z,5.60
2022-08-22T15:24:01.121Z,5.60
2022-08-22T15:26:36.986Z,5.70
2022-08-22T15:29:18.078Z,5.90
2022-08-22T15:31:56.415Z,5.70
2022-08-22T15:34:47.777Z,5.60
2022-08-22T15:37:34.005Z,5.60
2022-08-22T15:40:14.980Z,5.70
2022-08-22T15:42:50.263Z,5.40
2022-08-22T15:45:34.827Z,6.10
2022-08-22T15:48:25.013Z,5.90
2022-08-22T15:51:02.728Z,6.10
2022-08-22T15:53:59.491Z,5.90
2022-08-22T15:56:34.384Z,5.90
2022-08-22T15:59:53.816Z,6.10
2022-08-22T16:02:33.283Z,6.50
2022-08-22T16:05:23.187Z,6.10
2022-08-22T16:08:04.744Z,6.00
2022-08-22T16:10:42.947Z,6.40
2022-08-22T16:13:38.280Z,5.70
2022-08-22T16:16:33.520Z,6.50
2022-08-22T16:19:19.703Z,6.10
2022-08-22T16:22:13.974Z,6.00
2022-08-22T16:25:17.215Z,6.20
2022-08-22T16:27:59.180Z,6.30
2022-08-22T16:30:39.288Z,6.30
2022-08-22T16:33:17.978Z,6.30
2022-08-22T16:36:26.047Z,6.60
2022-08-22T16:39:00.196Z,5.90
2022-08-22T16:41:40.455Z,6.80
2022-08-22T16:44:44.780Z,6.90
2022-08-22T16:47:19.977Z,7.40
2022-08-22T16:50:09.865Z,6.80
2022-08-22T16:53:07.120Z,6.90
2022-08-22T16:59:01.068Z,6.50
2022-08-22T17:02:02.217Z,5.70
2022-08-22T17:04:42.179Z,6.00
2022-08-22T17:07:34.574Z,6.30
2022-08-22T17:10:21.313Z,6.60
2022-08-22T17:13:17.128Z,6.20
2022-08-22T17:16:02.755Z,7.10
2022-08-22T17:18:52.790Z,6.00
2022-08-22T17:21:30.838Z,6.20
2022-08-22T17:24:32.012Z,6.40
2022-08-22T17:27:19.881Z,5.70
2022-08-22T17:30:07.147Z,6.60
2022-08-22T17:32:59.917Z,6.10
2022-08-22T17:35:55.258Z,6.60
2022-08-22T17:38:43.949Z,6.00
2022-08-22T17:41:30.457Z,6.10
2022-08-22T17:44:12.537Z,6.40
2022-08-22T17:46:49.832Z,6.30
2022-08-22T17:49:36.805Z,6.00
2022-08-22T17:52:16.018Z,6.60
2022-08-22T17:54:53.675Z,6.40
2022-08-22T17:57:31.753Z,6.90
2022-08-22T18:00:09.783Z,6.90
2022-08-22T18:02:47.820Z,6.60
2022-08-22T18:05:25.414Z,6.70
2022-08-22T18:08:05.939Z,6.50
2022-08-22T18:10:47.379Z,6.60
2022-08-22T18:13:37.676Z,7.00
2022-08-22T18:16:20.100Z,6.90
2022-08-22T18:19:03.208Z,7.00
2022-08-22T18:21:42.234Z,6.60
2022-08-22T18:24:23.822Z,6.70
2022-08-22T18:27:01.913Z,7.20
2022-08-22T18:29:44.919Z,7.10
2022-08-22T18:32:26.886Z,7.00
2022-08-22T18:35:07.844Z,7.10
2022-08-22T18:37:50.906Z,6.80
2022-08-22T18:40:32.529Z,7.20
2022-08-22T18:43:15.588Z,7.70
2022-08-22T18:46:03.862Z,7.40
2022-08-22T18:49:05.444Z,7.80
2022-08-22T18:51:38.822Z,6.90
2022-08-22T18:54:37.280Z,7.30
2022-08-22T18:57:30.553Z,7.20
2022-08-22T19:00:12.761Z,8.00
2022-08-22T19:03:10.839Z,8.40
2022-08-22T19:06:20.418Z,8.30
2022-08-22T19:09:05.480Z,7.60
2022-08-22T19:11:54.362Z,6.90
2022-08-22T19:14:48.869Z,7.40
2022-08-22T19:17:36.988Z,7.90
2022-08-22T19:20:38.956Z,8.40
2022-08-22T19:23:49.410Z,7.80
2022-08-22T19:26:44.145Z,7.90
2022-08-22T19:29:51.025Z,8.20
2022-08-22T19:32:55.550Z,7.20
2022-08-22T19:35:31.922Z,7.50
2022-08-22T19:38:07.309Z,8.20
2022-08-22T19:40:59.145Z,8.30
2022-08-22T19:43:36.864Z,8.30
2022-08-22T19:46:12.878Z,8.20
2022-08-22T19:48:48.845Z,8.50
2022-08-22T19:51:31.228Z,9.00
2022-08-22T19:54:21.776Z,8.70
2022-08-22T19:57:13.709Z,8.10
2022-08-22T20:00:00.418Z,8.20
2022-08-22T20:05:21.515Z,8.20
2022-08-22T20:08:11.219Z,8.10
2022-08-22T20:10:56.928Z,8.70
2022-08-22T20:13:31.718Z,8.10
2022-08-22T20:16:13.593Z,8.30
2022-08-22T20:19:16.355Z,8.60
2022-08-22T20:21:55.039Z,8.00
2022-08-22T20:24:40.084Z,8.70
2022-08-22T20:27:18.427Z,8.60
2022-08-22T20:30:03.003Z,9.30
2022-08-22T20:32:40.637Z,8.80
2022-08-22T20:35:18.511Z,9.50
2022-08-22T20:38:06.689Z,8.60
2022-08-22T20:40:55.004Z,8.80
2022-08-22T20:43:35.383Z,8.40
2022-08-22T20:46:23.989Z,9.00
2022-08-22T20:48:57.665Z,8.00
2022-08-22T20:51:32.359Z,8.70
2022-08-22T20:54:10.472Z,8.50
2022-08-22T20:56:53.604Z,8.80
2022-08-22T20:59:36.006Z,8.60
2022-08-22T21:02:13.756Z,8.40
2022-08-22T21:04:52.980Z,8.50
2022-08-22T21:07:28.669Z,8.20
2022-08-22T21:10:23.137Z,8.90
2022-08-22T21:13:11.444Z,9.80
2022-08-22T21:15:46.291Z,9.50
2022-08-22T21:18:29.968Z,8.50
2022-08-22T21:21:17.850Z,9.00
2022-08-22T21:23:54.006Z,9.20
2022-08-22T21:26:30.517Z,9.10
2022-08-22T21:29:06.523Z,9.20
2022-08-22T21:31:45.951Z,9.60
2022-08-22T21:34:22.012Z,9.80
2022-08-22T21:36:57.933Z,9.30
2022-08-22T21:39:33.900Z,9.00
2022-08-22T21:42:17.842Z,9.80
2022-08-22T21:44:58.850Z,9.20
2022-08-22T21:47:34.669Z,9.20
2022-08-22T21:50:18.713Z,10.10
2022-08-22T21:53:10.095Z,8.70
2022-08-22T21:55:47.002Z,9.00
2022-08-22T21:58:35.892Z,9.30
2022-08-22T22:01:30.713Z,9.30
2022-08-22T22:04:03.616Z,9.50
2022-08-22T22:06:35.757Z,9.10
2022-08-22T22:09:09.989Z,9.20
2022-08-22T22:11:45.282Z,9.70
2022-08-22T22:14:17.559Z,9.70
2022-08-22T22:16:49.572Z,9.70
2022-08-22T22:19:21.621Z,10.10
2022-08-22T22:21:54.716Z,9.90
2022-08-22T22:24:26.973Z,10.00
2022-08-22T22:26:59.480Z,9.90
2022-08-22T22:29:31.501Z,9.20
2022-08-22T22:32:03.745Z,9.60
2022-08-22T22:34:37.134Z,9.40
2022-08-22T22:37:11.959Z,9.90
2022-08-22T22:39:44.709Z,9.90
2022-08-22T22:42:16.954Z,9.80
2022-08-22T22:44:49.067Z,9.50
2022-08-22T22:47:26.653Z,10.30
2022-08-22T22:49:59.012Z,10.50
2022-08-22T22:52:31.245Z,10.40
2022-08-22T22:55:03.305Z,10.30
2022-08-22T22:57:41.354Z,10.90
2022-08-22T23:00:17.335Z,10.00
2022-08-22T23:02:49.500Z,10.40
2022-08-22T23:05:21.710Z,10.00
2022-08-22T23:07:53.744Z,10.00
2022-08-22T23:10:26.309Z,9.20
2022-08-22T23:12:58.417Z,9.70
2022-08-22T23:15:30.593Z,10.60
2022-08-22T23:18:03.054Z,10.30
2022-08-22T23:20:35.211Z,10.20
2022-08-22T23:23:07.328Z,9.70
2022-08-22T23:25:39.407Z,10.50
2022-08-22T23:28:11.640Z,10.90
2022-08-22T23:30:44.193Z,10.80
2022-08-22T23:33:16.921Z,10.10
2022-08-22T23:35:49.006Z,10.50
2022-08-22T23:38:21.013Z,10.60
2022-08-22T23:40:54.116Z,10.40
2022-08-22T23:43:26.210Z,10.90
2022-08-22T23:45:58.234Z,10.90
2022-08-22T23:48:30.506Z,11.40
2022-08-22T23:51:02.522Z,11.20
2022-08-22T23:53:35.026Z,9.90
2022-08-22T23:56:19.450Z,11.30
2022-08-22T23:58:53.346Z,10.70
